Time;durP1;ratioP1;P1;durP2;ratioP2;P2;SDS_P1;SDS_P2;PMS_P1;PMS_P2;Temp;Humidity;BMP_temperature;BMP_pressure;BME280_temperature;BME280_humidity;BME280_pressure;Samples;Min_cycle;Max_cycle;Signal;HPM_P1;HPM_P2
2021/03/09 00:04:59;;;;;;;7.90;2.70;;;4.70;99.90;;;;;;10202151;28;20044;-53
2021/03/09 00:10:20;;;;;;;6.63;2.67;;;4.60;99.90;;;;;;10196317;28;20051;-53
2021/03/09 00:15:41;;;;;;;16.50;4.53;;;4.80;99.90;;;;;;10191453;28;20051;-53
2021/03/09 00:21:02;;;;;;;8.40;4.18;;;4.70;99.90;;;;;;10201873;28;20054;-53
2021/03/09 00:26:23;;;;;;;8.68;2.83;;;4.70;99.90;;;;;;10197256;28;20094;-53
2021/03/09 00:31:44;;;;;;;12.63;2.65;;;4.70;99.90;;;;;;10196408;28;20545;-52
2021/03/09 00:37:05;;;;;;;9.18;3.35;;;4.80;99.90;;;;;;10201961;28;20070;-53
2021/03/09 00:42:26;;;;;;;19.08;2.80;;;4.70;99.90;;;;;;10206462;28;20059;-53
2021/03/09 00:47:47;;;;;;;9.27;3.25;;;4.60;99.90;;;;;;10200159;28;20039;-52
2021/03/09 00:53:09;;;;;;;7.65;3.30;;;4.60;99.90;;;;;;10209309;28;20043;-52
2021/03/09 00:58:30;;;;;;;20.58;4.63;;;4.60;99.90;;;;;;10207445;28;20114;-52
2021/03/09 01:03:51;;;;;;;24.40;4.20;;;4.70;99.90;;;;;;10212429;28;20039;-52
2021/03/09 01:09:12;;;;;;;16.02;4.13;;;4.70;99.90;;;;;;10206773;28;20039;-52
2021/03/09 01:14:33;;;;;;;12.85;4.78;;;4.70;99.90;;;;;;10207406;28;20073;-52
2021/03/09 01:19:53;;;;;;;14.70;4.70;;;4.70;99.90;;;;;;10208345;28;20301;-52
2021/03/09 01:25:15;;;;;;;20.73;5.38;;;4.70;99.90;;;;;;10208272;28;20055;-52
2021/03/09 01:30:36;;;;;;;8.13;3.65;;;4.60;99.90;;;;;;10211343;28;20415;-52
2021/03/09 01:35:57;;;;;;;10.95;3.92;;;4.70;99.90;;;;;;10209315;28;20059;-52
2021/03/09 01:41:18;;;;;;;14.23;4.75;;;4.70;99.90;;;;;;10205547;28;20050;-52
2021/03/09 01:46:41;;;;;;;14.60;3.88;;;4.70;99.90;;;;;;10205006;28;20480;-53
2021/03/09 01:52:05;;;;;;;23.38;4.00;;;4.80;99.90;;;;;;10209216;28;20050;-53
2021/03/09 01:57:26;;;;;;;16.35;5.00;;;4.70;99.90;;;;;;10203085;28;20047;-53
2021/03/09 02:02:48;;;;;;;17.58;4.72;;;4.70;99.90;;;;;;10206608;28;20148;-53
2021/03/09 02:08:09;;;;;;;14.20;4.88;;;4.80;99.90;;;;;;10201539;28;20040;-53
2021/03/09 02:13:51;;;;;;;10.43;4.03;;;4.80;99.90;;;;;;10209373;28;20460;-53
2021/03/09 02:19:37;;;;;;;18.85;6.22;;;4.80;99.90;;;;;;10209091;28;20040;-53
2021/03/09 02:25:29;;;;;;;16.88;5.38;;;4.90;99.90;;;;;;10203391;28;20099;-53
2021/03/09 02:30:52;;;;;;;13.65;4.05;;;4.80;99.90;;;;;;10205024;28;20075;-53
2021/03/09 02:36:16;;;;;;;11.35;4.00;;;4.80;99.90;;;;;;10209936;28;20113;-53
2021/03/09 02:41:46;;;;;;;14.15;5.32;;;4.80;99.90;;;;;;10207975;28;20329;-53
2021/03/09 02:47:11;;;;;;;23.83;7.25;;;4.80;99.90;;;;;;10208628;28;20039;-53
2021/03/09 02:52:35;;;;;;;9.50;5.15;;;4.90;99.90;;;;;;10203798;28;20051;-53
2021/03/09 02:57:58;;;;;;;14.73;5.68;;;5.00;99.90;;;;;;10199318;28;20601;-53
2021/03/09 03:03:20;;;;;;;14.65;5.85;;;5.00;99.90;;;;;;10199553;28;20063;-53
2021/03/09 03:08:42;;;;;;;19.58;6.57;;;5.00;99.90;;;;;;10206339;28;20097;-53
2021/03/09 03:14:06;;;;;;;17.50;5.85;;;5.10;99.90;;;;;;10200614;28;20050;-53
2021/03/09 03:19:29;;;;;;;24.30;6.90;;;5.10;99.90;;;;;;10197176;28;20039;-53
2021/03/09 03:24:52;;;;;;;20.58;7.82;;;5.00;99.90;;;;;;10200513;28;20054;-52
2021/03/09 03:30:15;;;;;;;20.60;6.38;;;5.00;99.90;;;;;;10202178;28;20043;-53
2021/03/09 03:35:36;;;;;;;15.80;5.25;;;5.10;99.90;;;;;;10204363;28;20039;-53
2021/03/09 03:40:58;;;;;;;22.70;7.05;;;5.20;99.90;;;;;;10205583;28;20052;-53
2021/03/09 03:46:19;;;;;;;12.52;5.18;;;5.10;99.90;;;;;;10200291;28;20038;-53
2021/03/09 03:51:45;;;;;;;18.40;6.40;;;5.10;99.90;;;;;;10208175;28;20117;-53
2021/03/09 03:57:17;;;;;;;23.67;7.88;;;5.10;99.90;;;;;;10209548;28;20043;-53
2021/03/09 04:02:39;;;;;;;21.05;6.57;;;5.00;99.90;;;;;;10199192;28;20043;-53
2021/03/09 04:08:00;;;;;;;17.92;6.30;;;5.10;99.90;;;;;;10205175;28;20035;-53
2021/03/09 04:13:24;;;;;;;19.77;6.05;;;5.10;99.90;;;;;;10202100;28;20488;-52
2021/03/09 04:18:47;;;;;;;15.45;5.78;;;5.10;99.90;;;;;;10182562;28;20039;-53
2021/03/09 04:24:10;;;;;;;23.00;7.20;;;5.10;99.90;;;;;;10196902;28;20036;-53
2021/03/09 04:29:32;;;;;;;23.58;7.70;;;5.10;99.90;;;;;;10192180;28;20062;-53
2021/03/09 04:34:54;;;;;;;23.15;6.28;;;5.20;99.90;;;;;;10207465;28;20047;-53
2021/03/09 04:40:16;;;;;;;19.67;5.85;;;5.30;99.90;;;;;;10212226;28;20040;-53
2021/03/09 04:45:37;;;;;;;20.05;5.45;;;5.20;99.90;;;;;;10206453;28;20067;-53
2021/03/09 04:51:05;;;;;;;20.58;7.15;;;5.30;99.90;;;;;;10213279;28;20056;-53
2021/03/09 04:56:25;;;;;;;19.27;6.15;;;5.30;99.90;;;;;;10209953;28;20055;-53
2021/03/09 05:01:47;;;;;;;15.70;6.38;;;5.30;99.90;;;;;;10205595;28;20245;-53
2021/03/09 05:07:08;;;;;;;17.67;7.25;;;5.40;99.90;;;;;;10203182;28;20492;-53
2021/03/09 05:12:29;;;;;;;18.15;6.40;;;5.50;99.90;;;;;;10206629;28;20231;-53
2021/03/09 05:17:50;;;;;;;14.50;6.35;;;5.50;99.90;;;;;;10203096;28;20042;-53
2021/03/09 05:23:11;;;;;;;16.30;7.40;;;5.50;99.90;;;;;;10210102;28;20047;-53
2021/03/09 05:28:32;;;;;;;17.98;6.22;;;5.50;99.90;;;;;;10208353;28;20527;-53
2021/03/09 05:33:53;;;;;;;21.45;6.93;;;5.70;99.90;;;;;;10216806;28;20356;-53
2021/03/09 05:39:14;;;;;;;14.23;5.00;;;5.70;99.90;;;;;;10200137;28;20035;-53
2021/03/09 05:44:37;;;;;;;17.45;4.45;;;5.90;99.90;;;;;;10204211;28;20381;-53
2021/03/09 05:49:58;;;;;;;7.63;2.05;;;5.90;99.90;;;;;;10209637;28;20039;-53
2021/03/09 05:55:19;;;;;;;4.63;1.65;;;6.00;99.90;;;;;;10204214;28;20534;-53
2021/03/09 06:00:40;;;;;;;3.40;0.90;;;6.10;99.90;;;;;;10206793;28;20027;-53
2021/03/09 06:06:02;;;;;;;2.20;1.02;;;6.00;99.90;;;;;;10202693;28;20067;-52
2021/03/09 06:11:22;;;;;;;2.47;0.93;;;5.90;99.90;;;;;;10199353;28;20091;-53
2021/03/09 06:16:43;;;;;;;1.55;0.75;;;5.90;99.90;;;;;;10196643;28;20078;-53
2021/03/09 06:22:04;;;;;;;2.08;0.90;;;6.00;99.90;;;;;;10201197;28;20046;-53
2021/03/09 06:27:30;;;;;;;1.80;0.88;;;5.90;99.90;;;;;;10201964;28;20090;-53
2021/03/09 06:32:52;;;;;;;4.07;0.63;;;5.90;99.90;;;;;;10207464;28;20482;-53
2021/03/09 06:38:23;;;;;;;1.83;1.13;;;5.90;99.90;;;;;;10202636;28;20418;-53
2021/03/09 06:44:02;;;;;;;1.77;0.70;;;5.90;99.90;;;;;;10197825;29;20044;-53
2021/03/09 06:49:23;;;;;;;1.65;0.50;;;6.00;99.90;;;;;;10200974;28;20050;-53
2021/03/09 06:54:47;;;;;;;2.38;0.52;;;5.90;99.90;;;;;;10201832;28;20051;-53
2021/03/09 07:00:10;;;;;;;1.33;0.30;;;5.80;99.90;;;;;;10204052;28;20050;-53
2021/03/09 07:05:31;;;;;;;1.70;0.63;;;5.90;99.90;;;;;;10199460;28;20156;-53
2021/03/09 07:10:56;;;;;;;1.17;0.40;;;5.90;99.90;;;;;;10207360;28;20039;-53
2021/03/09 07:16:17;;;;;;;0.47;0.17;;;5.90;99.90;;;;;;10201856;29;20066;-53
2021/03/09 07:21:41;;;;;;;5.63;0.25;;;5.90;99.90;;;;;;10200924;28;20040;-53
2021/03/09 07:27:13;;;;;;;5.85;1.10;;;5.90;99.90;;;;;;10204395;28;20040;-53
2021/03/09 07:32:38;;;;;;;0.35;0.08;;;6.00;99.90;;;;;;10200837;28;20530;-53
2021/03/09 07:37:59;;;;;;;1.45;0.32;;;6.00;99.90;;;;;;10206186;28;20119;-52
2021/03/09 07:43:21;;;;;;;1.77;0.50;;;6.10;99.90;;;;;;10201612;28;20066;-53
2021/03/09 07:48:42;;;;;;;4.35;1.48;;;6.10;99.90;;;;;;10202652;28;20102;-52
2021/03/09 07:54:11;;;;;;;0.47;0.40;;;6.30;99.90;;;;;;10204255;28;20592;-52
2021/03/09 07:59:32;;;;;;;0.50;0.22;;;6.30;99.90;;;;;;10203652;28;20293;-53
2021/03/09 08:04:56;;;;;;;0.38;0.22;;;6.30;99.90;;;;;;10205850;29;20597;-52
2021/03/09 08:10:44;;;;;;;0.65;0.20;;;6.40;99.90;;;;;;10209934;28;20043;-52
2021/03/09 08:16:20;;;;;;;0.93;0.30;;;6.40;99.90;;;;;;10207652;28;20529;-53
2021/03/09 08:21:48;;;;;;;6.72;0.88;;;6.60;99.90;;;;;;10208245;28;20500;-53
2021/03/09 08:27:27;;;;;;;1.38;0.30;;;6.80;99.90;;;;;;10207495;28;20050;-53
2021/03/09 08:32:48;;;;;;;;;;;6.80;99.90;;;;;;10209723;28;20047;-53
2021/03/09 08:38:14;;;;;;;0.45;0.10;;;6.80;99.90;;;;;;10198368;29;20282;-53
2021/03/09 08:43:36;;;;;;;0.13;0.00;;;6.90;99.90;;;;;;10222270;28;20039;-53
2021/03/09 08:48:57;;;;;;;0.10;0.08;;;7.10;99.90;;;;;;10235215;29;20043;-53
2021/03/09 08:54:25;;;;;;;0.82;0.20;;;7.20;99.90;;;;;;10229157;29;20134;-53
2021/03/09 08:59:51;;;;;;;0.35;0.20;;;7.30;99.90;;;;;;10213174;28;20071;-53
2021/03/09 09:05:12;;;;;;;0.20;0.10;;;7.50;99.90;;;;;;10205264;28;20073;-52
2021/03/09 09:10:33;;;;;;;0.38;0.10;;;7.50;99.90;;;;;;10205846;28;20067;-52
2021/03/09 09:15:54;;;;;;;0.88;0.15;;;7.50;99.90;;;;;;10194111;28;20044;-53
2021/03/09 09:21:15;;;;;;;0.38;0.10;;;7.40;99.90;;;;;;10210323;28;20067;-53
2021/03/09 09:26:36;;;;;;;0.90;0.17;;;7.40;99.90;;;;;;10205570;28;20037;-52
2021/03/09 09:31:59;;;;;;;1.35;0.40;;;7.40;99.90;;;;;;10210108;28;20050;-52
2021/03/09 09:37:20;;;;;;;0.38;0.10;;;7.40;99.90;;;;;;10210620;28;20047;-52
2021/03/09 09:42:41;;;;;;;0.52;0.10;;;7.50;99.90;;;;;;10208195;28;20050;-52
2021/03/09 09:48:02;;;;;;;0.75;0.10;;;7.50;99.90;;;;;;10208547;28;20039;-52
2021/03/09 09:53:41;;;;;;;1.33;0.32;;;7.50;99.90;;;;;;10211841;28;20043;-52
2021/03/09 09:59:02;;;;;;;0.55;0.20;;;7.80;99.90;;;;;;10204688;28;20055;-52
2021/03/09 10:04:33;;;;;;;0.43;0.20;;;8.00;99.90;;;;;;10213419;28;20051;-52
2021/03/09 10:10:01;;;;;;;0.28;0.10;;;7.80;99.90;;;;;;10207046;28;20043;-52
2021/03/09 10:15:23;;;;;;;0.30;0.10;;;7.50;99.90;;;;;;10208597;29;20558;-52
2021/03/09 10:20:44;;;;;;;0.93;0.30;;;7.20;99.90;;;;;;10210654;28;21677;-52
2021/03/09 10:26:05;;;;;;;1.08;0.40;;;7.00;99.90;;;;;;10202255;28;20031;-52
2021/03/09 10:31:26;;;;;;;0.93;0.47;;;7.10;99.90;;;;;;10204854;28;20047;-52
2021/03/09 10:36:53;;;;;;;0.35;0.20;;;7.40;99.90;;;;;;10205297;28;20043;-52
2021/03/09 10:42:30;;;;;;;1.58;0.30;;;7.30;99.90;;;;;;10205474;28;20555;-52
2021/03/09 10:48:00;;;;;;;1.42;0.30;;;7.20;99.90;;;;;;10205532;28;20126;-52
2021/03/09 10:53:21;;;;;;;1.15;0.30;;;7.10;99.90;;;;;;10201449;29;20151;-52
2021/03/09 10:58:42;;;;;;;2.95;0.88;;;6.90;99.90;;;;;;10204673;28;20047;-52
2021/03/09 11:04:03;;;;;;;5.93;0.80;;;6.80;99.90;;;;;;10204065;28;20043;-51
2021/03/09 11:09:24;;;;;;;2.88;0.85;;;6.80;99.90;;;;;;10201748;29;20035;-52
2021/03/09 11:14:45;;;;;;;2.72;0.43;;;7.00;99.90;;;;;;10204466;28;20047;-52
2021/03/09 11:20:07;;;;;;;0.75;0.30;;;7.20;99.90;;;;;;10206006;28;20040;-52
2021/03/09 11:25:29;;;;;;;3.05;0.43;;;7.40;99.90;;;;;;10202975;28;20040;-52
2021/03/09 11:30:50;;;;;;;0.70;0.38;;;7.70;99.90;;;;;;10198838;29;20055;-51
2021/03/09 11:36:12;;;;;;;3.67;1.13;;;7.50;99.90;;;;;;10200278;28;20052;-51
2021/03/09 11:41:33;;;;;;;1.30;0.40;;;7.50;99.90;;;;;;10200406;28;20503;-51
2021/03/09 11:46:54;;;;;;;0.65;0.22;;;7.40;99.90;;;;;;10196150;28;20036;-51
2021/03/09 11:52:15;;;;;;;4.55;0.52;;;7.20;99.90;;;;;;10218128;29;20066;-51
2021/03/09 11:57:36;;;;;;;0.52;0.20;;;7.10;99.90;;;;;;10199792;28;20122;-51
2021/03/09 12:02:57;;;;;;;1.95;0.60;;;7.20;99.90;;;;;;10200149;28;20043;-51
2021/03/09 12:08:18;;;;;;;2.40;0.60;;;7.10;99.90;;;;;;10204762;28;20325;-51
2021/03/09 12:13:39;;;;;;;1.50;0.47;;;7.20;99.90;;;;;;10196143;28;20090;-51
2021/03/09 12:19:00;;;;;;;1.35;0.60;;;7.20;99.90;;;;;;10203119;28;20038;-51
2021/03/09 12:24:21;;;;;;;0.90;0.47;;;7.20;99.90;;;;;;10202430;28;20130;-51
2021/03/09 12:29:42;;;;;;;1.75;0.68;;;7.10;99.90;;;;;;10198486;28;20075;-51
2021/03/09 12:35:07;;;;;;;2.83;1.00;;;7.00;99.90;;;;;;10199579;28;20083;-51
2021/03/09 12:40:28;;;;;;;2.55;0.93;;;7.00;99.90;;;;;;10201857;28;20082;-51
2021/03/09 12:45:49;;;;;;;2.58;0.90;;;7.10;99.90;;;;;;10197983;28;20419;-51
2021/03/09 12:51:11;;;;;;;6.65;1.83;;;7.10;99.90;;;;;;10208322;28;20024;-51
2021/03/09 12:56:32;;;;;;;4.80;1.70;;;7.20;99.90;;;;;;10211795;28;20044;-51
2021/03/09 13:01:53;;;;;;;2.80;0.75;;;7.20;99.90;;;;;;10207599;28;20820;-51
2021/03/09 13:07:14;;;;;;;2.22;0.90;;;7.20;99.90;;;;;;10208764;29;20031;-50
2021/03/09 13:12:35;;;;;;;4.13;0.90;;;7.30;99.90;;;;;;10204693;28;20122;-51
2021/03/09 13:17:56;;;;;;;3.78;1.30;;;7.40;99.90;;;;;;10209202;28;20032;-51
2021/03/09 13:23:17;;;;;;;4.15;1.33;;;7.40;99.90;;;;;;10211482;28;20040;-50
2021/03/09 13:28:38;;;;;;;3.25;1.20;;;7.60;99.90;;;;;;10208778;28;20455;-51
2021/03/09 13:33:59;;;;;;;6.07;1.80;;;7.60;99.90;;;;;;10206030;28;20558;-51
2021/03/09 13:39:20;;;;;;;4.32;1.58;;;7.60;99.90;;;;;;10205520;28;20126;-51
2021/03/09 13:44:42;;;;;;;2.78;1.38;;;7.60;99.90;;;;;;10205974;29;20505;-51
2021/03/09 13:50:07;;;;;;;4.05;1.58;;;7.70;99.90;;;;;;10207339;28;20047;-51
2021/03/09 13:55:28;;;;;;;4.00;1.25;;;7.70;99.90;;;;;;10204602;29;20097;-51
2021/03/09 14:00:49;;;;;;;3.25;1.20;;;7.70;99.90;;;;;;10202115;28;20139;-51
2021/03/09 14:06:11;;;;;;;3.70;1.25;;;7.80;99.90;;;;;;10200794;28;20563;-50
2021/03/09 14:11:32;;;;;;;6.22;1.52;;;7.70;99.90;;;;;;10210634;28;20050;-50
2021/03/09 14:16:53;;;;;;;1.65;0.68;;;7.70;99.90;;;;;;10211080;28;20419;-50
2021/03/09 14:22:15;;;;;;;7.85;2.17;;;7.70;99.90;;;;;;10202602;28;20039;-50
2021/03/09 14:27:42;;;;;;;8.98;0.90;;;7.80;99.90;;;;;;10202348;28;20070;-50
2021/03/09 14:33:03;;;;;;;4.57;1.50;;;7.70;99.90;;;;;;10209058;28;20148;-50
2021/03/09 14:38:24;;;;;;;3.92;1.50;;;7.60;99.90;;;;;;10206998;28;20102;-50
2021/03/09 14:43:45;;;;;;;5.90;1.17;;;7.70;99.90;;;;;;10203969;29;20298;-50
2021/03/09 14:49:06;;;;;;;6.55;1.00;;;7.80;99.90;;;;;;10206946;29;20086;-50
2021/03/09 14:54:27;;;;;;;6.13;1.30;;;7.70;99.90;;;;;;10203586;28;20055;-50
2021/03/09 14:59:48;;;;;;;4.10;1.17;;;7.60;99.90;;;;;;10206407;28;20054;-50
2021/03/09 15:05:10;;;;;;;2.35;1.40;;;7.60;99.90;;;;;;10199089;28;20834;-50
2021/03/09 15:10:31;;;;;;;3.25;1.40;;;7.60;99.90;;;;;;10202529;28;20177;-50
2021/03/09 15:15:52;;;;;;;2.88;0.98;;;7.50;99.90;;;;;;10200327;28;20047;-50
2021/03/09 15:21:14;;;;;;;4.38;1.38;;;7.50;99.90;;;;;;10205719;28;20067;-50
2021/03/09 15:26:35;;;;;;;4.63;1.10;;;7.50;99.90;;;;;;10200672;28;20185;-50
2021/03/09 15:31:56;;;;;;;4.45;1.08;;;7.40;99.90;;;;;;10202505;28;20170;-50
2021/03/09 15:37:17;;;;;;;5.15;1.35;;;7.30;99.90;;;;;;10199991;28;20046;-50
2021/03/09 15:42:38;;;;;;;1.17;0.65;;;7.40;99.90;;;;;;10198218;28;20350;-50
2021/03/09 15:47:59;;;;;;;3.40;1.17;;;7.40;99.90;;;;;;10210959;29;20051;-50
2021/03/09 15:53:20;;;;;;;3.03;0.68;;;7.30;99.90;;;;;;10198555;28;20051;-50
2021/03/09 15:58:41;;;;;;;2.72;0.80;;;7.20;99.90;;;;;;10201118;28;20074;-50
2021/03/09 16:04:03;;;;;;;3.25;1.13;;;7.20;99.90;;;;;;10203840;28;20043;-50
2021/03/09 16:09:24;;;;;;;4.03;1.83;;;7.10;99.90;;;;;;10212512;28;20115;-51
2021/03/09 16:14:45;;;;;;;5.07;1.60;;;7.10;99.90;;;;;;10198170;28;20183;-50
2021/03/09 16:20:08;;;;;;;7.43;2.08;;;7.10;99.90;;;;;;10212439;29;20455;-50
2021/03/09 16:25:29;;;;;;;7.38;1.95;;;7.00;99.90;;;;;;10202113;28;20043;-50
2021/03/09 16:30:50;;;;;;;4.45;1.83;;;7.00;99.90;;;;;;10210099;28;20051;-50
2021/03/09 16:36:11;;;;;;;5.95;2.00;;;7.00;99.90;;;;;;10205604;28;20035;-50
2021/03/09 16:41:32;;;;;;;5.80;2.25;;;7.00;99.90;;;;;;10209673;28;20404;-50
2021/03/09 16:46:53;;;;;;;14.02;3.75;;;6.90;99.90;;;;;;10209039;28;20415;-50
2021/03/09 16:52:14;;;;;;;6.55;2.28;;;6.90;99.90;;;;;;10208396;29;20479;-50
2021/03/09 16:57:35;;;;;;;11.95;2.78;;;7.00;99.90;;;;;;10207796;28;20156;-50
2021/03/09 17:02:56;;;;;;;14.10;3.63;;;6.90;99.90;;;;;;10209081;28;20028;-50
2021/03/09 17:08:17;;;;;;;10.00;4.22;;;6.90;99.90;;;;;;10193074;29;20091;-50
2021/03/09 17:13:38;;;;;;;9.02;2.58;;;6.80;99.90;;;;;;10209942;28;20083;-50
2021/03/09 17:18:59;;;;;;;9.20;2.00;;;6.70;99.90;;;;;;10210298;29;20071;-50
2021/03/09 17:24:20;;;;;;;10.82;2.75;;;6.70;99.90;;;;;;10205945;29;20601;-50
2021/03/09 17:29:41;;;;;;;7.95;2.40;;;6.70;99.90;;;;;;10205005;29;20046;-50
2021/03/09 17:35:03;;;;;;;8.48;3.22;;;6.60;99.90;;;;;;10208764;28;20609;-50
2021/03/09 17:40:24;;;;;;;6.85;2.55;;;6.60;99.90;;;;;;10207930;28;20249;-50
2021/03/09 17:45:45;;;;;;;9.55;3.08;;;6.70;99.90;;;;;;10208781;28;20031;-50
2021/03/09 17:51:06;;;;;;;10.88;3.30;;;6.70;99.90;;;;;;10202726;28;20069;-50
2021/03/09 17:56:27;;;;;;;7.32;3.33;;;6.70;99.90;;;;;;10214598;28;20047;-50
2021/03/09 18:01:48;;;;;;;14.48;3.90;;;6.70;99.90;;;;;;10211244;28;20110;-50
2021/03/09 18:07:09;;;;;;;9.68;4.07;;;6.60;99.90;;;;;;10206555;28;20554;-51
2021/03/09 18:12:30;;;;;;;7.80;2.47;;;6.60;99.90;;;;;;10204137;28;20054;-50
2021/03/09 18:17:51;;;;;;;15.50;2.30;;;6.60;99.90;;;;;;10205192;28;20050;-50
2021/03/09 18:23:12;;;;;;;3.70;1.95;;;6.50;99.90;;;;;;10207445;28;20042;-50
2021/03/09 18:28:33;;;;;;;5.05;2.15;;;6.40;99.90;;;;;;10205059;28;20043;-50
2021/03/09 18:33:54;;;;;;;4.60;1.48;;;6.40;99.90;;;;;;10204735;28;20595;-50
2021/03/09 18:39:15;;;;;;;5.28;2.58;;;6.40;99.90;;;;;;10197837;28;20070;-50
2021/03/09 18:44:36;;;;;;;3.78;1.60;;;6.40;99.90;;;;;;10196867;28;20094;-51
2021/03/09 18:49:57;;;;;;;6.05;2.53;;;6.40;99.90;;;;;;10201332;28;20035;-50
2021/03/09 18:55:18;;;;;;;5.07;2.58;;;6.40;99.90;;;;;;10200128;28;20492;-50
2021/03/09 19:00:39;;;;;;;8.32;2.15;;;6.50;99.90;;;;;;10205475;28;20399;-50
2021/03/09 19:06:00;;;;;;;8.23;3.03;;;6.50;99.90;;;;;;10200597;28;20113;-50
2021/03/09 19:11:21;;;;;;;7.28;2.13;;;6.40;99.90;;;;;;10202637;28;20139;-50
2021/03/09 19:16:42;;;;;;;5.32;1.90;;;6.40;99.90;;;;;;10203489;28;20074;-50
2021/03/09 19:22:03;;;;;;;5.28;1.60;;;6.40;99.90;;;;;;10172798;28;20619;-50
2021/03/09 19:27:24;;;;;;;6.47;1.92;;;6.30;99.90;;;;;;10184555;28;20057;-50
2021/03/09 19:32:45;;;;;;;6.07;2.33;;;6.40;99.90;;;;;;10180911;28;20051;-50
2021/03/09 19:38:06;;;;;;;3.35;1.40;;;6.40;99.90;;;;;;10187801;28;20122;-50
2021/03/09 19:43:27;;;;;;;6.00;1.60;;;6.30;99.90;;;;;;10186016;28;20047;-50
2021/03/09 19:48:48;;;;;;;3.58;1.42;;;6.30;99.90;;;;;;10185239;28;20332;-50
2021/03/09 19:54:09;;;;;;;4.43;1.55;;;6.20;99.90;;;;;;10187325;28;20050;-50
2021/03/09 19:59:31;;;;;;;3.65;1.58;;;6.10;99.90;;;;;;10194385;28;20055;-50
2021/03/09 20:04:54;;;;;;;3.58;1.35;;;6.10;99.90;;;;;;10191633;28;20051;-50
2021/03/09 20:10:15;;;;;;;4.90;2.22;;;6.10;99.90;;;;;;10194430;28;20047;-50
2021/03/09 20:15:36;;;;;;;2.83;0.98;;;6.10;99.90;;;;;;10187474;28;20039;-50
2021/03/09 20:20:57;;;;;;;2.83;0.90;;;6.00;99.90;;;;;;10189289;28;20047;-50
2021/03/09 20:26:18;;;;;;;3.10;1.23;;;6.00;99.90;;;;;;10176759;28;20752;-50
2021/03/09 20:31:40;;;;;;;3.60;1.23;;;6.00;99.90;;;;;;10204796;28;20471;-50
2021/03/09 20:37:02;;;;;;;5.95;2.00;;;6.00;99.90;;;;;;10196346;28;20512;-50
2021/03/09 20:42:23;;;;;;;4.00;1.98;;;6.00;99.90;;;;;;10182830;28;21727;-50
2021/03/09 20:47:44;;;;;;;4.43;1.23;;;6.00;99.90;;;;;;10193383;28;20456;-50
2021/03/09 20:53:05;;;;;;;3.55;1.05;;;6.00;99.90;;;;;;10195587;28;20050;-50
2021/03/09 20:58:25;;;;;;;2.85;1.00;;;5.90;99.90;;;;;;10189774;28;20130;-50
2021/03/09 21:03:46;;;;;;;3.65;1.50;;;5.90;99.90;;;;;;10195757;28;20483;-50
2021/03/09 21:09:08;;;;;;;4.53;1.50;;;5.90;99.90;;;;;;10187387;28;20776;-50
2021/03/09 21:14:29;;;;;;;3.70;1.17;;;5.90;99.90;;;;;;10187118;28;20062;-50
2021/03/09 21:19:50;;;;;;;3.35;1.42;;;5.90;99.90;;;;;;10198599;28;20046;-50
2021/03/09 21:25:11;;;;;;;2.67;1.08;;;5.90;99.90;;;;;;10205891;28;20368;-50
2021/03/09 21:30:33;;;;;;;2.25;0.95;;;5.80;99.90;;;;;;10206285;28;20051;-50
2021/03/09 21:35:54;;;;;;;5.93;1.30;;;5.70;99.90;;;;;;10209508;28;20098;-50
2021/03/09 21:41:15;;;;;;;4.22;1.50;;;5.60;99.90;;;;;;10199819;28;20036;-50
2021/03/09 21:46:36;;;;;;;4.38;1.58;;;5.40;99.90;;;;;;10204791;28;20082;-50
2021/03/09 21:51:57;;;;;;;1.90;1.00;;;5.10;99.90;;;;;;10202927;28;20051;-50
2021/03/09 21:57:19;;;;;;;7.97;1.73;;;5.00;99.90;;;;;;10197380;28;20046;-50
2021/03/09 22:02:40;;;;;;;4.18;1.50;;;4.90;99.90;;;;;;10204028;28;20044;-50
2021/03/09 22:08:01;;;;;;;6.35;2.38;;;4.70;99.90;;;;;;10200034;28;20044;-50
2021/03/09 22:13:23;;;;;;;7.93;2.83;;;4.50;99.90;;;;;;10197989;28;20051;-50
2021/03/09 22:18:44;;;;;;;5.25;2.25;;;4.40;99.90;;;;;;10199099;28;20119;-50
2021/03/09 22:24:05;;;;;;;6.15;2.80;;;4.20;99.90;;;;;;10197364;28;20035;-50
2021/03/09 22:29:27;;;;;;;4.10;1.55;;;4.10;99.90;;;;;;10200953;28;20032;-50
2021/03/09 22:34:48;;;;;;;4.57;2.28;;;3.90;99.90;;;;;;10193532;29;20798;-50
2021/03/09 22:40:09;;;;;;;4.45;1.80;;;3.60;99.90;;;;;;10205028;28;20054;-50
2021/03/09 22:45:30;;;;;;;6.32;1.63;;;3.60;99.90;;;;;;10196967;28;20044;-49
2021/03/09 22:50:51;;;;;;;6.38;2.97;;;3.50;99.90;;;;;;10199997;28;20546;-50
2021/03/09 22:56:12;;;;;;;5.65;2.63;;;3.60;99.90;;;;;;10195084;28;20563;-50
2021/03/09 23:01:33;;;;;;;8.15;2.72;;;3.50;99.90;;;;;;10206193;28;20144;-50
2021/03/09 23:06:54;;;;;;;6.25;2.22;;;3.40;99.90;;;;;;10200144;28;20043;-50
2021/03/09 23:12:15;;;;;;;11.65;3.35;;;3.30;99.90;;;;;;10201486;28;20058;-49
2021/03/09 23:17:37;;;;;;;4.40;1.73;;;3.20;99.90;;;;;;10203004;28;20047;-50
2021/03/09 23:23:00;;;;;;;6.15;2.35;;;3.10;99.90;;;;;;10205761;28;20035;-49
2021/03/09 23:28:21;;;;;;;5.30;1.83;;;3.10;99.90;;;;;;10200134;28;20070;-49
2021/03/09 23:33:42;;;;;;;6.38;1.85;;;3.00;99.90;;;;;;10204332;28;20118;-49
2021/03/09 23:39:04;;;;;;;6.57;2.28;;;2.90;99.90;;;;;;10201976;28;22676;-49
2021/03/09 23:44:25;;;;;;;4.43;2.10;;;2.90;99.90;;;;;;10198089;28;20054;-49
2021/03/09 23:49:46;;;;;;;3.00;1.60;;;3.00;99.90;;;;;;10201941;28;20067;-49
2021/03/09 23:55:08;;;;;;;4.82;2.45;;;3.00;99.90;;;;;;10201513;29;20556;-49
